Time;durP1;ratioP1;P1;durP2;ratioP2;P2;SDS_P1;SDS_P2;PMS_P1;PMS_P2;Temp;Humidity;BMP_temperature;BMP_pressure;BME280_temperature;BME280_humidity;BME280_pressure;Samples;Min_cycle;Max_cycle;Signal;HPM_P1;HPM_P2
2021/07/13 00:00:33;;;;;;;11.70;6.70;;;20.70;99.90;;;;;;4188792;28;20774;-60
2021/07/13 00:02:34;;;;;;;12.68;7.43;;;20.70;99.90;;;;;;4189564;28;20021;-60
2021/07/13 00:04:35;;;;;;;11.00;7.95;;;20.70;99.90;;;;;;4189186;28;20520;-61
2021/07/13 00:06:36;;;;;;;10.25;7.43;;;20.60;99.90;;;;;;4188806;28;20090;-61
2021/07/13 00:08:38;;;;;;;9.98;7.32;;;20.60;99.90;;;;;;4188984;28;20852;-61
2021/07/13 00:10:41;;;;;;;15.68;8.15;;;20.60;99.90;;;;;;4189174;28;20086;-61
2021/07/13 00:12:42;;;;;;;13.93;8.10;;;20.50;99.90;;;;;;4189356;28;20591;-61
2021/07/13 00:14:44;;;;;;;18.38;7.60;;;20.40;99.90;;;;;;4188218;28;20490;-61
2021/07/13 00:16:45;;;;;;;13.10;7.85;;;20.30;99.90;;;;;;4189078;28;20544;-61
2021/07/13 00:18:46;;;;;;;18.40;7.50;;;20.30;99.90;;;;;;4188842;28;20036;-61
2021/07/13 00:20:47;;;;;;;15.25;8.55;;;20.20;99.90;;;;;;4188881;28;20049;-61
2021/07/13 00:22:49;;;;;;;18.67;9.88;;;20.10;99.90;;;;;;4188563;28;20082;-62
2021/07/13 00:24:50;;;;;;;17.38;8.85;;;20.10;99.90;;;;;;4189187;28;20093;-61
2021/07/13 00:26:51;;;;;;;13.60;8.52;;;20.00;99.90;;;;;;4188490;28;20102;-62
2021/07/13 00:28:52;;;;;;;20.50;10.45;;;20.00;99.90;;;;;;4189052;28;20058;-61
2021/07/13 00:30:53;;;;;;;17.60;10.05;;;19.90;99.90;;;;;;4189180;28;20036;-62
2021/07/13 00:32:54;;;;;;;18.88;9.45;;;19.80;99.90;;;;;;4189093;28;20033;-63
2021/07/13 00:34:55;;;;;;;16.33;9.88;;;19.80;99.90;;;;;;4188353;28;20028;-62
2021/07/13 00:36:56;;;;;;;16.98;10.00;;;19.70;99.90;;;;;;4188550;28;20036;-62
2021/07/13 00:38:58;;;;;;;21.05;10.68;;;19.60;99.90;;;;;;4189469;28;20032;-62
2021/07/13 00:40:59;;;;;;;18.08;9.40;;;19.60;99.90;;;;;;4188782;28;20493;-62
2021/07/13 00:43:03;;;;;;;17.40;9.80;;;19.60;99.90;;;;;;4188739;28;20040;-62
2021/07/13 00:45:07;;;;;;;18.52;11.68;;;19.60;99.90;;;;;;4188933;28;20090;-62
2021/07/13 00:47:10;;;;;;;20.00;11.57;;;19.70;99.90;;;;;;4188572;28;20041;-62
2021/07/13 00:49:13;;;;;;;20.13;10.27;;;19.60;99.90;;;;;;4188596;28;20499;-62
2021/07/13 00:51:14;;;;;;;14.88;9.95;;;19.60;99.90;;;;;;4188586;28;20478;-61
2021/07/13 00:53:15;;;;;;;15.48;11.63;;;19.60;99.90;;;;;;4188709;28;20094;-61
2021/07/13 00:55:17;;;;;;;23.60;10.18;;;19.60;99.90;;;;;;4188871;28;20036;-61
2021/07/13 00:57:19;;;;;;;15.45;8.98;;;19.60;99.90;;;;;;4188878;28;20036;-62
2021/07/13 00:59:20;;;;;;;16.45;10.32;;;19.60;99.90;;;;;;4188792;28;20085;-62
2021/07/13 01:01:21;;;;;;;10.68;8.13;;;19.60;99.90;;;;;;4188633;28;20025;-61
2021/07/13 01:03:22;;;;;;;15.77;10.07;;;19.70;99.90;;;;;;4188630;28;20545;-61
2021/07/13 01:05:31;;;;;;;15.20;9.57;;;19.70;99.90;;;;;;4187495;28;20197;-62
2021/07/13 01:08:04;;;;;;;25.67;12.27;;;19.70;99.90;;;;;;4188889;28;20090;-62
2021/07/13 01:10:18;;;;;;;15.95;10.73;;;19.70;99.90;;;;;;4191953;28;20041;-62
2021/07/13 01:12:49;;;;;;;18.80;11.23;;;19.60;99.90;;;;;;4192020;28;20044;-62
2021/07/13 01:14:55;;;;;;;21.42;11.00;;;19.50;99.90;;;;;;4191487;28;20028;-60
2021/07/13 01:17:07;;;;;;;20.33;12.02;;;19.40;99.90;;;;;;4191527;28;20040;-58
2021/07/13 01:19:46;;;;;;;16.02;10.70;;;19.30;99.90;;;;;;4191136;28;20048;-61
2021/07/13 01:21:56;;;;;;;18.42;11.35;;;19.30;99.90;;;;;;4191742;28;20044;-61
2021/07/13 01:24:28;;;;;;;17.10;10.73;;;19.20;99.90;;;;;;4191772;28;20812;-62
2021/07/13 01:26:45;;;;;;;16.17;11.45;;;19.10;99.90;;;;;;4191728;28;20025;-63
2021/07/13 01:28:49;;;;;;;18.98;11.38;;;19.10;99.90;;;;;;4191434;28;20070;-61
2021/07/13 01:31:02;;;;;;;18.67;10.65;;;19.00;99.90;;;;;;4191619;28;20028;-61
2021/07/13 01:33:08;;;;;;;19.00;10.13;;;19.00;99.90;;;;;;4191877;28;20070;-62
2021/07/13 01:35:14;;;;;;;28.70;11.98;;;19.00;99.90;;;;;;4190980;28;20048;-60
2021/07/13 01:37:17;;;;;;;28.90;11.90;;;19.00;99.90;;;;;;4191463;28;20033;-62
2021/07/13 01:39:19;;;;;;;24.65;11.90;;;19.00;99.90;;;;;;4191152;28;20040;-62
2021/07/13 01:41:24;;;;;;;22.17;12.07;;;19.00;99.90;;;;;;4191196;28;20470;-60
2021/07/13 01:43:26;;;;;;;16.75;10.20;;;19.10;99.90;;;;;;4191456;28;20090;-62
2021/07/13 01:45:29;;;;;;;19.40;9.73;;;19.10;99.90;;;;;;4190915;28;20105;-61
2021/07/13 01:47:30;;;;;;;15.43;9.15;;;19.10;99.90;;;;;;4190629;28;20480;-61
2021/07/13 01:49:32;;;;;;;17.92;10.10;;;19.10;99.90;;;;;;4191179;28;20480;-61
2021/07/13 01:51:34;;;;;;;14.00;9.55;;;19.10;99.90;;;;;;4191407;28;20082;-61
2021/07/13 01:53:37;;;;;;;18.60;10.00;;;19.10;99.90;;;;;;4191623;28;20029;-62
2021/07/13 01:55:40;;;;;;;23.13;11.18;;;19.00;99.90;;;;;;4191252;28;20021;-62
2021/07/13 01:57:42;;;;;;;18.02;10.25;;;19.00;99.90;;;;;;4191059;28;20080;-61
2021/07/13 01:59:46;;;;;;;21.48;9.57;;;19.00;99.90;;;;;;4191407;28;20032;-60
2021/07/13 02:01:48;;;;;;;16.45;10.85;;;19.00;99.90;;;;;;4191186;28;20102;-60
2021/07/13 02:03:52;;;;;;;19.25;10.57;;;19.20;99.90;;;;;;4191539;28;20082;-60
2021/07/13 02:05:56;;;;;;;12.57;9.27;;;19.10;99.90;;;;;;4190963;28;20025;-61
2021/07/13 02:08:01;;;;;;;17.88;10.63;;;19.10;99.90;;;;;;4190481;28;20074;-62
2021/07/13 02:10:05;;;;;;;24.80;10.93;;;19.20;99.90;;;;;;4190122;28;20051;-59
2021/07/13 02:12:07;;;;;;;16.55;10.20;;;19.10;99.90;;;;;;4191466;28;20021;-65
2021/07/13 02:14:09;;;;;;;15.70;9.48;;;19.10;99.90;;;;;;4190716;28;20062;-62
2021/07/13 02:16:11;;;;;;;19.38;11.63;;;19.00;99.90;;;;;;4190972;28;20074;-61
2021/07/13 02:18:14;;;;;;;20.42;10.55;;;18.90;99.90;;;;;;4190762;28;20045;-62
2021/07/13 02:20:15;;;;;;;18.80;10.57;;;18.90;99.90;;;;;;4189676;28;20552;-62
2021/07/13 02:22:16;;;;;;;19.83;10.80;;;18.80;99.90;;;;;;4189853;28;20451;-62
2021/07/13 02:24:18;;;;;;;18.90;10.25;;;18.70;99.90;;;;;;4191268;28;20041;-61
2021/07/13 02:26:33;;;;;;;20.83;10.52;;;18.80;99.90;;;;;;4190508;28;20048;-61
2021/07/13 02:28:42;;;;;;;19.23;10.30;;;18.70;99.90;;;;;;4190500;28;20097;-61
2021/07/13 02:30:55;;;;;;;21.55;11.82;;;18.60;99.90;;;;;;4190751;28;20093;-62
2021/07/13 02:33:13;;;;;;;17.80;10.07;;;18.60;99.90;;;;;;4190293;28;20086;-61
2021/07/13 02:35:17;;;;;;;18.80;10.02;;;18.60;99.90;;;;;;4189919;28;20065;-62
2021/07/13 02:37:20;;;;;;;13.25;10.27;;;18.50;99.90;;;;;;4190087;28;20455;-61
2021/07/13 02:39:23;;;;;;;16.80;10.82;;;18.40;99.90;;;;;;4190302;28;20032;-62
2021/07/13 02:41:25;;;;;;;14.68;10.50;;;18.30;99.90;;;;;;4191089;28;20048;-61
2021/07/13 02:43:27;;;;;;;13.07;10.43;;;18.20;99.90;;;;;;4190691;28;20041;-62
2021/07/13 02:45:29;;;;;;;14.55;10.40;;;18.10;99.90;;;;;;4190548;28;20097;-62
2021/07/13 02:47:30;;;;;;;14.68;10.52;;;18.00;99.90;;;;;;4189946;28;20040;-62
2021/07/13 02:49:33;;;;;;;11.93;10.02;;;18.00;99.90;;;;;;4190397;28;20907;-62
2021/07/13 02:51:35;;;;;;;15.88;11.50;;;18.00;99.90;;;;;;4190348;28;20780;-62
2021/07/13 02:53:38;;;;;;;13.73;9.73;;;17.90;99.90;;;;;;4189964;28;20028;-62
2021/07/13 02:55:41;;;;;;;14.88;9.90;;;17.80;99.90;;;;;;4190176;28;21415;-61
2021/07/13 02:57:44;;;;;;;14.50;10.75;;;17.90;99.90;;;;;;4190122;28;20106;-61
2021/07/13 02:59:46;;;;;;;13.38;10.43;;;17.90;99.90;;;;;;4190366;28;20102;-62
2021/07/13 03:01:49;;;;;;;11.32;9.23;;;17.90;99.90;;;;;;4189803;28;20837;-63
2021/07/13 03:03:51;;;;;;;18.67;10.05;;;18.00;99.90;;;;;;4190174;28;20476;-63
2021/07/13 03:05:53;;;;;;;14.07;9.18;;;18.10;99.90;;;;;;4190120;28;20097;-61
2021/07/13 03:07:55;;;;;;;14.32;9.95;;;18.30;99.90;;;;;;4189550;28;20514;-62
2021/07/13 03:09:57;;;;;;;17.60;9.57;;;18.40;99.90;;;;;;4190276;28;20083;-62
2021/07/13 03:11:59;;;;;;;12.20;10.15;;;18.50;99.90;;;;;;4188690;28;20062;-62
2021/07/13 03:14:02;;;;;;;14.80;10.85;;;18.60;99.90;;;;;;4190278;28;20543;-62
2021/07/13 03:16:04;;;;;;;16.50;11.02;;;18.80;99.90;;;;;;4189695;28;20539;-62
2021/07/13 03:18:05;;;;;;;20.45;10.35;;;19.00;99.90;;;;;;4190226;28;20024;-62
2021/07/13 03:20:07;;;;;;;13.93;10.45;;;19.20;99.90;;;;;;4188800;28;20090;-62
2021/07/13 03:22:34;;;;;;;14.65;10.25;;;19.20;99.90;;;;;;4189915;28;20105;-60
2021/07/13 03:24:38;;;;;;;19.35;10.50;;;19.30;99.90;;;;;;4189095;28;20086;-61
2021/07/13 03:26:42;;;;;;;17.17;10.75;;;19.50;99.90;;;;;;4189681;28;20091;-60
2021/07/13 03:28:44;;;;;;;18.52;10.13;;;19.70;99.90;;;;;;4189623;28;20036;-61
2021/07/13 03:30:46;;;;;;;20.05;10.00;;;20.00;99.90;;;;;;4189487;28;20486;-61
2021/07/13 03:32:50;;;;;;;17.02;10.00;;;20.30;99.90;;;;;;4189081;28;20025;-62
2021/07/13 03:34:52;;;;;;;14.70;9.38;;;20.50;99.90;;;;;;4190029;28;20032;-62
2021/07/13 03:36:56;;;;;;;14.73;10.02;;;20.80;99.90;;;;;;4189528;28;20029;-61
2021/07/13 03:38:58;;;;;;;16.67;10.27;;;21.00;99.90;;;;;;4188339;28;20090;-62
2021/07/13 03:41:01;;;;;;;11.35;9.07;;;21.10;99.90;;;;;;4188816;28;20048;-64
2021/07/13 03:43:03;;;;;;;13.20;9.05;;;21.10;99.90;;;;;;4189554;28;20097;-61
2021/07/13 03:45:05;;;;;;;11.85;9.05;;;21.40;99.90;;;;;;4189203;28;20486;-61
2021/07/13 03:47:14;;;;;;;16.50;10.63;;;21.80;99.90;;;;;;4189246;28;20879;-61
2021/07/13 03:49:15;;;;;;;11.23;8.77;;;22.00;99.90;;;;;;4189101;28;20089;-61
2021/07/13 03:51:26;;;;;;;14.05;9.40;;;22.20;99.90;;;;;;4188371;28;20032;-61
2021/07/13 03:53:28;;;;;;;11.10;8.63;;;22.30;99.90;;;;;;4188898;28;20599;-62
2021/07/13 03:55:29;;;;;;;13.73;8.82;;;22.30;99.90;;;;;;4188991;28;20032;-63
2021/07/13 03:57:31;;;;;;;20.13;10.10;;;22.40;99.90;;;;;;4189006;28;20290;-62
2021/07/13 03:59:32;;;;;;;13.70;9.05;;;22.50;99.90;;;;;;4189260;28;20070;-62
2021/07/13 04:01:34;;;;;;;17.63;9.75;;;22.60;99.90;;;;;;4189000;28;20432;-62
2021/07/13 04:03:36;;;;;;;16.17;8.40;;;22.80;99.90;;;;;;4189353;28;20109;-62
2021/07/13 04:05:37;;;;;;;16.88;8.60;;;23.10;99.90;;;;;;4188914;28;20082;-62
2021/07/13 04:07:38;;;;;;;19.05;9.10;;;23.40;99.90;;;;;;4187418;28;20488;-63
2021/07/13 04:09:41;;;;;;;14.43;8.70;;;23.70;99.90;;;;;;4188757;28;20036;-62
2021/07/13 04:11:42;;;;;;;14.55;9.48;;;24.30;99.90;;;;;;4188907;28;20102;-60
2021/07/13 04:13:43;;;;;;;10.88;8.20;;;24.70;99.90;;;;;;4188666;28;20093;-62
2021/07/13 04:15:46;;;;;;;17.02;9.13;;;25.10;99.90;;;;;;4188831;28;20119;-62
2021/07/13 04:17:48;;;;;;;16.98;8.93;;;25.40;99.90;;;;;;4188790;28;20045;-60
2021/07/13 04:19:49;;;;;;;10.32;7.95;;;25.60;99.90;;;;;;4187010;28;20020;-63
2021/07/13 04:21:50;;;;;;;13.10;9.02;;;25.70;99.90;;;;;;4189028;28;20044;-62
2021/07/13 04:23:53;;;;;;;17.25;9.05;;;25.90;99.90;;;;;;4188348;28;20094;-62
2021/07/13 04:25:54;;;;;;;12.50;8.10;;;26.10;99.90;;;;;;4188824;28;20029;-61
2021/07/13 04:27:56;;;;;;;13.75;8.82;;;26.10;99.90;;;;;;4188699;28;20501;-61
2021/07/13 04:29:57;;;;;;;12.93;9.55;;;26.00;99.90;;;;;;4188476;28;20081;-61
2021/07/13 04:31:58;;;;;;;20.00;13.18;;;26.00;99.90;;;;;;4188466;28;20021;-62
2021/07/13 04:34:02;;;;;;;22.48;10.60;;;26.10;99.80;;;;;;4188540;28;20036;-62
2021/07/13 04:36:03;;;;;;;16.63;9.73;;;26.10;99.70;;;;;;4188207;28;20568;-62
2021/07/13 04:38:05;;;;;;;20.45;10.77;;;25.90;99.60;;;;;;4188507;28;20074;-62
2021/07/13 04:40:07;;;;;;;15.85;10.27;;;25.70;99.70;;;;;;4188838;28;20036;-61
2021/07/13 04:42:09;;;;;;;12.73;9.10;;;25.30;99.80;;;;;;4189013;28;20110;-61
2021/07/13 04:44:10;;;;;;;15.93;8.95;;;25.10;99.90;;;;;;4192920;28;20473;-60
2021/07/13 04:46:11;;;;;;;22.33;9.55;;;25.10;99.90;;;;;;4194273;28;20093;-62
2021/07/13 04:48:12;;;;;;;12.77;8.43;;;25.20;99.90;;;;;;4194105;28;20032;-60
2021/07/13 04:50:13;;;;;;;15.65;9.57;;;25.10;99.90;;;;;;4193895;28;20082;-62
2021/07/13 04:52:14;;;;;;;16.52;11.07;;;24.90;99.90;;;;;;4194035;28;20048;-62
2021/07/13 04:54:15;;;;;;;26.38;10.00;;;24.80;99.90;;;;;;4193998;28;20066;-62
2021/07/13 04:56:17;;;;;;;16.58;10.68;;;24.70;99.90;;;;;;4194052;28;20089;-61
2021/07/13 04:58:18;;;;;;;15.43;10.57;;;24.80;99.90;;;;;;4193527;28;20111;-61
2021/07/13 05:00:19;;;;;;;17.98;9.93;;;24.90;99.90;;;;;;4193983;28;20036;-62
2021/07/13 05:02:21;;;;;;;17.77;10.05;;;24.80;99.90;;;;;;4192431;28;20033;-62
2021/07/13 05:04:22;;;;;;;12.38;8.32;;;24.80;99.90;;;;;;4193974;28;20553;-63
2021/07/13 05:06:23;;;;;;;10.68;7.80;;;24.60;99.90;;;;;;4193936;28;20964;-62
2021/07/13 05:08:24;;;;;;;12.23;7.88;;;24.50;99.90;;;;;;4193642;28;20062;-61
2021/07/13 05:10:25;;;;;;;13.35;9.63;;;24.60;99.90;;;;;;4194026;28;20110;-63
2021/07/13 05:12:26;;;;;;;13.65;8.65;;;24.90;99.80;;;;;;4194135;28;20036;-62
2021/07/13 05:14:28;;;;;;;11.75;8.93;;;25.10;99.60;;;;;;4194166;28;20032;-61
2021/07/13 05:16:29;;;;;;;12.13;8.88;;;25.20;99.60;;;;;;4193091;28;20097;-62
2021/07/13 05:18:31;;;;;;;17.95;8.38;;;25.30;99.30;;;;;;4193860;28;20028;-61
2021/07/13 05:20:32;;;;;;;12.55;8.27;;;25.10;99.30;;;;;;4193547;28;20098;-62
2021/07/13 05:22:34;;;;;;;11.88;8.30;;;25.30;99.30;;;;;;4193709;28;20094;-61
2021/07/13 05:24:35;;;;;;;11.05;8.68;;;25.20;99.20;;;;;;4193452;28;20033;-61
2021/07/13 05:26:36;;;;;;;11.48;10.13;;;25.30;99.20;;;;;;4193626;28;20473;-61
2021/07/13 05:28:38;;;;;;;13.77;9.13;;;25.20;99.00;;;;;;4193472;28;20777;-61
2021/07/13 05:30:43;;;;;;;14.80;9.85;;;25.20;99.20;;;;;;4193586;28;20086;-62
2021/07/13 05:32:45;;;;;;;13.10;9.15;;;25.40;98.90;;;;;;4193238;28;20085;-61
2021/07/13 05:34:47;;;;;;;13.55;9.15;;;25.10;99.00;;;;;;4193234;28;20016;-63
2021/07/13 05:36:48;;;;;;;12.35;9.20;;;24.90;99.30;;;;;;4193576;28;20032;-61
2021/07/13 05:38:49;;;;;;;12.52;8.25;;;25.00;99.40;;;;;;4193504;28;20443;-62
2021/07/13 05:40:51;;;;;;;20.25;9.00;;;25.40;99.20;;;;;;4193159;28;20969;-62
2021/07/13 05:42:53;;;;;;;9.85;8.85;;;25.60;98.70;;;;;;4193636;28;20028;-62
2021/07/13 05:44:55;;;;;;;11.75;9.20;;;25.30;98.80;;;;;;4193569;28;20477;-61
2021/07/13 05:46:57;;;;;;;11.88;8.98;;;25.30;98.80;;;;;;4193239;28;20029;-61
2021/07/13 05:48:58;;;;;;;14.52;8.95;;;25.20;98.90;;;;;;4193482;28;20085;-63
2021/07/13 05:51:00;;;;;;;19.10;9.07;;;25.10;99.00;;;;;;4192714;28;20045;-63
2021/07/13 05:53:02;;;;;;;16.00;9.82;;;25.20;99.00;;;;;;4193794;28;20420;-62
2021/07/13 05:55:04;;;;;;;14.07;10.18;;;25.40;98.90;;;;;;4190488;28;20401;-63
2021/07/13 05:57:05;;;;;;;14.57;10.15;;;25.30;98.90;;;;;;4190673;28;20044;-62
2021/07/13 05:59:06;;;;;;;16.52;10.00;;;25.20;99.10;;;;;;4190511;28;20020;-61
2021/07/13 06:01:07;;;;;;;21.52;10.88;;;25.40;98.90;;;;;;4190594;28;20028;-62
2021/07/13 06:03:08;;;;;;;15.82;9.40;;;25.60;98.80;;;;;;4190740;28;20431;-61
2021/07/13 06:05:10;;;;;;;12.13;9.38;;;25.80;98.70;;;;;;4190804;28;20040;-62
2021/07/13 06:07:11;;;;;;;18.00;9.18;;;25.90;98.40;;;;;;4190894;28;20122;-63
2021/07/13 06:09:12;;;;;;;15.52;9.60;;;25.90;98.50;;;;;;4190523;28;20033;-62
2021/07/13 06:11:14;;;;;;;19.08;9.65;;;25.90;98.40;;;;;;4190570;28;20086;-63
2021/07/13 06:13:15;;;;;;;10.85;8.80;;;25.60;98.70;;;;;;4191230;28;20094;-62
2021/07/13 06:15:16;;;;;;;15.90;10.00;;;26.00;98.80;;;;;;4190065;28;20025;-63
2021/07/13 06:17:17;;;;;;;14.38;9.55;;;25.90;98.50;;;;;;4190705;28;20472;-62
2021/07/13 06:19:18;;;;;;;14.57;9.80;;;25.80;98.60;;;;;;4190179;28;20089;-62
2021/07/13 06:21:19;;;;;;;17.50;9.43;;;25.90;98.60;;;;;;4189778;28;20950;-62
2021/07/13 06:23:20;;;;;;;14.43;10.05;;;26.20;98.50;;;;;;4190263;28;20473;-61
2021/07/13 06:25:21;;;;;;;12.07;9.25;;;26.20;98.20;;;;;;4190594;28;20048;-62
2021/07/13 06:27:23;;;;;;;13.85;9.65;;;26.10;98.30;;;;;;4190357;28;20097;-61
2021/07/13 06:29:24;;;;;;;14.93;9.90;;;25.80;98.70;;;;;;4190223;28;20846;-61
2021/07/13 06:31:25;;;;;;;13.68;9.77;;;25.50;99.20;;;;;;4190376;28;20041;-62
2021/07/13 06:33:27;;;;;;;17.90;9.10;;;25.40;99.50;;;;;;4190379;28;20040;-61
2021/07/13 06:35:28;;;;;;;12.77;8.88;;;25.50;99.50;;;;;;4189742;28;20129;-61
2021/07/13 06:37:29;;;;;;;11.30;8.57;;;25.60;99.30;;;;;;4189921;28;20032;-62
2021/07/13 06:39:30;;;;;;;16.58;8.07;;;26.00;99.20;;;;;;4188923;28;20048;-63
2021/07/13 06:41:34;;;;;;;15.23;9.80;;;26.80;98.60;;;;;;4189995;28;20796;-63
2021/07/13 06:43:35;;;;;;;15.32;8.52;;;26.90;98.10;;;;;;4190461;28;20813;-60
2021/07/13 06:45:37;;;;;;;18.65;9.25;;;26.80;98.20;;;;;;4190109;28;20016;-62
2021/07/13 06:47:38;;;;;;;10.48;7.97;;;26.70;98.10;;;;;;4190272;28;20498;-62
2021/07/13 06:49:40;;;;;;;11.68;8.98;;;26.80;98.10;;;;;;4189922;28;20032;-62
2021/07/13 06:51:41;;;;;;;12.00;9.25;;;27.00;97.90;;;;;;4188422;28;20086;-62
2021/07/13 06:53:42;;;;;;;15.60;9.43;;;26.70;98.20;;;;;;4189471;28;20036;-61
2021/07/13 06:55:43;;;;;;;11.65;9.00;;;26.60;98.30;;;;;;4189448;28;20045;-61
2021/07/13 06:57:45;;;;;;;16.65;9.23;;;26.70;98.40;;;;;;4190088;28;20442;-61
2021/07/13 06:59:46;;;;;;;16.42;8.60;;;27.00;98.20;;;;;;4189614;28;20054;-62
2021/07/13 07:01:47;;;;;;;16.27;8.52;;;27.30;97.80;;;;;;4189761;28;20094;-63
2021/07/13 07:03:48;;;;;;;14.68;9.32;;;27.10;97.70;;;;;;4189738;28;20059;-62
2021/07/13 07:05:49;;;;;;;10.82;8.80;;;26.70;98.10;;;;;;4189290;28;20096;-61
2021/07/13 07:07:51;;;;;;;15.13;9.40;;;26.60;98.50;;;;;;4189737;28;20020;-61
2021/07/13 07:09:52;;;;;;;12.80;9.32;;;26.60;98.30;;;;;;4189208;28;20033;-62
2021/07/13 07:11:54;;;;;;;12.73;8.95;;;26.60;98.60;;;;;;4189193;28;20082;-61
2021/07/13 07:13:55;;;;;;;14.30;8.95;;;26.60;98.40;;;;;;4190062;28;20546;-62
2021/07/13 07:15:56;;;;;;;14.52;8.90;;;26.70;98.40;;;;;;4189165;28;20036;-61
2021/07/13 07:17:57;;;;;;;11.88;9.10;;;26.80;98.30;;;;;;4189022;28;20050;-62
2021/07/13 07:20:01;;;;;;;12.90;9.25;;;26.90;98.30;;;;;;4189194;28;20017;-62
2021/07/13 07:22:02;;;;;;;14.02;9.02;;;27.10;98.10;;;;;;4188804;28;20086;-61
2021/07/13 07:24:03;;;;;;;11.80;9.05;;;27.40;98.00;;;;;;4189322;28;20070;-63
2021/07/13 07:26:05;;;;;;;15.00;9.18;;;27.40;97.70;;;;;;4189035;28;20082;-62
2021/07/13 07:28:11;;;;;;;13.35;9.70;;;27.40;97.60;;;;;;4189280;28;20090;-62
2021/07/13 07:30:13;;;;;;;11.52;8.85;;;27.20;97.70;;;;;;4188779;28;20036;-62
2021/07/13 07:32:15;;;;;;;16.80;8.52;;;27.20;97.80;;;;;;4189770;28;20106;-62
2021/07/13 07:34:16;;;;;;;18.38;9.02;;;27.40;97.70;;;;;;4189063;28;20820;-62
2021/07/13 07:36:17;;;;;;;14.13;9.00;;;27.50;97.50;;;;;;4189090;28;20036;-62
2021/07/13 07:38:19;;;;;;;10.63;8.15;;;27.50;97.40;;;;;;4189180;28;20090;-62
2021/07/13 07:40:21;;;;;;;11.93;7.75;;;27.50;97.50;;;;;;4189141;28;20025;-62
2021/07/13 07:42:22;;;;;;;12.80;8.02;;;27.30;97.60;;;;;;4188886;28;20132;-60
2021/07/13 07:44:23;;;;;;;14.45;8.05;;;27.20;97.60;;;;;;4188931;28;20702;-62
2021/07/13 07:46:24;;;;;;;11.52;8.27;;;27.20;97.70;;;;;;4188993;28;20420;-61
2021/07/13 07:48:25;;;;;;;10.30;8.45;;;27.20;97.70;;;;;;4188671;28;20028;-62
2021/07/13 07:50:27;;;;;;;15.73;8.00;;;27.30;97.60;;;;;;4188935;28;20020;-63
2021/07/13 07:52:28;;;;;;;13.85;8.27;;;27.40;97.50;;;;;;4188882;28;20098;-62
2021/07/13 07:54:30;;;;;;;10.32;8.07;;;27.40;97.50;;;;;;4188594;28;20161;-61
2021/07/13 07:56:31;;;;;;;12.13;8.25;;;27.30;97.70;;;;;;4188770;28;20093;-62
2021/07/13 07:58:32;;;;;;;8.98;6.82;;;27.20;97.70;;;;;;4188681;28;20024;-61
2021/07/13 08:00:33;;;;;;;14.82;8.02;;;27.30;97.60;;;;;;4188074;28;20097;-60
2021/07/13 08:02:35;;;;;;;15.35;8.05;;;27.30;97.70;;;;;;4188413;28;20056;-61
2021/07/13 08:04:36;;;;;;;12.68;8.05;;;27.50;97.70;;;;;;4188577;28;20036;-61
2021/07/13 08:06:37;;;;;;;9.82;6.95;;;27.60;97.50;;;;;;4188430;28;20021;-61
2021/07/13 08:08:38;;;;;;;14.90;7.93;;;27.80;97.40;;;;;;4188036;28;20044;-61
2021/07/13 08:10:39;;;;;;;9.82;7.78;;;28.00;97.10;;;;;;4188435;28;20032;-62
2021/07/13 08:12:42;;;;;;;9.48;7.47;;;28.10;97.10;;;;;;4188874;28;20009;-62
2021/07/13 08:14:43;;;;;;;13.70;7.78;;;28.00;96.90;;;;;;4189036;28;20558;-60
2021/07/13 08:16:45;;;;;;;11.25;7.13;;;28.00;97.00;;;;;;4189058;28;20098;-61
2021/07/13 08:18:49;;;;;;;13.85;7.78;;;28.20;97.00;;;;;;4187998;28;20036;-61
2021/07/13 08:20:51;;;;;;;13.57;7.38;;;28.30;96.80;;;;;;4188027;28;20098;-61
2021/07/13 08:22:52;;;;;;;16.25;7.38;;;28.30;96.60;;;;;;4188301;28;20048;-62
2021/07/13 08:24:53;;;;;;;8.18;6.70;;;28.40;96.60;;;;;;4188295;28;20025;-62
2021/07/13 08:26:54;;;;;;;7.90;6.38;;;28.50;96.30;;;;;;4188252;28;20066;-62
2021/07/13 08:28:55;;;;;;;9.55;6.20;;;28.50;95.90;;;;;;4188538;28;20093;-61
2021/07/13 08:30:56;;;;;;;8.70;6.50;;;28.60;95.90;;;;;;4188353;28;20040;-61
2021/07/13 08:32:57;;;;;;;10.75;5.88;;;28.50;95.70;;;;;;4188469;28;20032;-61
2021/07/13 08:34:59;;;;;;;11.55;6.88;;;28.50;95.80;;;;;;4188073;28;20553;-62
2021/07/13 08:37:00;;;;;;;11.68;6.47;;;28.70;95.70;;;;;;4188143;28;20041;-60
2021/07/13 08:39:02;;;;;;;9.32;6.53;;;28.90;95.40;;;;;;4188471;28;20046;-60
2021/07/13 08:41:03;;;;;;;7.78;6.10;;;28.80;95.30;;;;;;4188637;28;20090;-63
2021/07/13 08:43:07;;;;;;;17.05;9.00;;;28.80;95.20;;;;;;4188557;28;20052;-62
2021/07/13 08:45:11;;;;;;;8.82;6.18;;;28.70;95.20;;;;;;4188234;28;20082;-62
2021/07/13 08:47:14;;;;;;;7.00;6.22;;;28.70;95.20;;;;;;4188228;28;20438;-63
2021/07/13 08:49:15;;;;;;;8.23;6.40;;;28.70;95.20;;;;;;4188454;28;20075;-62
2021/07/13 08:51:18;;;;;;;11.27;6.38;;;28.90;95.00;;;;;;4188407;28;20048;-61
2021/07/13 08:53:19;;;;;;;9.80;6.10;;;28.90;94.80;;;;;;4188872;28;20048;-62
2021/07/13 08:55:22;;;;;;;12.65;6.97;;;28.90;94.70;;;;;;4188357;28;20045;-62
2021/07/13 08:57:23;;;;;;;9.50;6.38;;;29.00;94.60;;;;;;4188051;28;20052;-62
2021/07/13 08:59:24;;;;;;;11.60;6.63;;;29.10;94.50;;;;;;4187711;28;20550;-62
2021/07/13 09:01:25;;;;;;;8.73;6.03;;;29.00;94.40;;;;;;4188037;28;20074;-63
2021/07/13 09:03:30;;;;;;;9.07;5.78;;;29.00;94.30;;;;;;4187764;28;20767;-61
2021/07/13 09:05:47;;;;;;;6.15;5.55;;;29.00;94.20;;;;;;4188290;28;20457;-62
2021/07/13 09:07:48;;;;;;;6.07;5.40;;;29.10;93.20;;;;;;4187268;28;20028;-62
2021/07/13 09:09:52;;;;;;;7.05;5.40;;;29.10;93.60;;;;;;4187654;28;20473;-62
2021/07/13 09:12:16;;;;;;;11.63;5.45;;;29.20;93.40;;;;;;4188455;28;20033;-62
2021/07/13 09:14:17;;;;;;;9.35;5.57;;;29.40;92.50;;;;;;4188047;28;20269;-61
2021/07/13 09:16:22;;;;;;;9.40;5.60;;;29.40;92.40;;;;;;4188027;28;20032;-61
2021/07/13 09:18:35;;;;;;;7.93;5.97;;;29.40;92.60;;;;;;4187261;28;20025;-61
2021/07/13 09:20:37;;;;;;;9.18;5.78;;;29.40;92.30;;;;;;4188400;28;20567;-62
2021/07/13 09:22:51;;;;;;;7.15;5.50;;;29.50;92.40;;;;;;4187022;28;20477;-61
2021/07/13 09:24:52;;;;;;;6.57;5.30;;;29.50;92.10;;;;;;4188334;28;20055;-62
2021/07/13 09:26:53;;;;;;;9.05;5.95;;;29.40;92.00;;;;;;4187405;28;20818;-62
2021/07/13 09:28:54;;;;;;;9.63;5.50;;;29.40;92.00;;;;;;4188186;28;20583;-62
2021/07/13 09:30:58;;;;;;;6.97;5.25;;;29.50;91.90;;;;;;4190996;28;20086;-61
2021/07/13 09:33:23;;;;;;;20.05;5.78;;;29.70;91.60;;;;;;4190834;28;20086;-62
2021/07/13 09:35:24;;;;;;;9.95;4.70;;;29.80;90.40;;;;;;4190506;28;20053;-62
2021/07/13 09:37:38;;;;;;;11.73;6.00;;;29.80;90.90;;;;;;4191260;28;20032;-62
2021/07/13 09:39:39;;;;;;;7.85;5.03;;;29.90;90.80;;;;;;4189542;28;20085;-61
2021/07/13 09:41:51;;;;;;;9.23;5.03;;;29.80;90.70;;;;;;4191273;28;20041;-63
2021/07/13 09:44:00;;;;;;;10.50;5.43;;;29.70;87.90;;;;;;4190925;28;20086;-61
2021/07/13 09:46:23;;;;;;;8.05;5.82;;;29.60;90.20;;;;;;4190464;28;20082;-61
2021/07/13 09:48:24;;;;;;;7.97;5.30;;;29.70;88.80;;;;;;4190490;28;20033;-62
2021/07/13 09:50:40;;;;;;;9.85;5.07;;;29.70;90.00;;;;;;4190579;28;20032;-61
2021/07/13 09:53:00;;;;;;;8.73;5.40;;;29.80;89.60;;;;;;4189957;28;20048;-63
2021/07/13 09:55:14;;;;;;;8.48;4.72;;;30.00;89.50;;;;;;4190769;28;20091;-62
2021/07/13 09:57:28;;;;;;;7.72;4.65;;;30.10;87.10;;;;;;4190492;28;20078;-63
2021/07/13 09:59:30;;;;;;;10.40;5.28;;;30.10;87.20;;;;;;4190622;28;20024;-62
2021/07/13 10:01:33;;;;;;;8.98;4.82;;;30.10;88.30;;;;;;4190010;28;20033;-62
2021/07/13 10:03:35;;;;;;;5.88;4.68;;;30.10;87.00;;;;;;4190545;28;20044;-62
2021/07/13 10:05:38;;;;;;;7.60;5.13;;;30.10;86.60;;;;;;4190576;28;20126;-62
2021/07/13 10:07:43;;;;;;;5.88;5.28;;;30.10;86.90;;;;;;4190094;28;20689;-62
2021/07/13 10:09:55;;;;;;;5.18;4.35;;;30.00;86.40;;;;;;4190283;28;20153;-62
2021/07/13 10:11:56;;;;;;;7.95;5.25;;;30.00;85.50;;;;;;4190736;28;20044;-61
2021/07/13 10:13:58;;;;;;;5.57;5.00;;;29.90;86.50;;;;;;4191020;28;20070;-62
2021/07/13 10:15:59;;;;;;;5.07;4.57;;;30.00;85.90;;;;;;4190916;28;20085;-63
2021/07/13 10:18:03;;;;;;;7.53;4.97;;;30.00;85.00;;;;;;4190538;28;20560;-62
2021/07/13 10:20:08;;;;;;;8.30;5.63;;;30.00;84.90;;;;;;4189766;28;20090;-63
2021/07/13 10:22:12;;;;;;;12.07;5.28;;;30.00;85.10;;;;;;4190255;28;20057;-62
2021/07/13 10:24:14;;;;;;;6.00;4.63;;;30.10;84.80;;;;;;4190485;28;20032;-63
2021/07/13 10:26:44;;;;;;;7.35;4.70;;;30.30;83.50;;;;;;4190240;28;20842;-62
2021/07/13 10:28:45;;;;;;;;;;;30.30;82.30;;;;;;4190780;28;20082;-61
2021/07/13 10:30:46;;;;;;;7.78;4.60;;;30.30;82.60;;;;;;4190039;28;20559;-61
2021/07/13 10:32:47;;;;;;;6.53;5.72;;;30.20;83.20;;;;;;4190248;28;20028;-61